aviador You're here:

LFBE Decoded Metar

BERGERAC in FRANCE
Report Time2017-08-18 04:30:00
UTC Time2017-08-18 04:49:13
Flight Rules vfr VFR
Wind160° at 01 kt
W.Decomp.*RWY 10: 0.5 kt HW 0.9 kt RCW
W.Rank160° ranks 21
Current wind is below 160° avg. (5.5)
Visibility9999 m
Phenomena:N/A
Clouds:N/A
Expected CloudBase > 400 ft AGL from Temp-Dew spread
CeilingNone
Temp15°C (ISA 0)
Dew Point14°C (94% RH)
QNH1018 hPa
Density Alt256 ft
Elevation171 ft
Report Wrong Elevation
Raw Report
METAR LFBE 180430Z AUTO 16001KT 9999 1900 NSC 15/14 Q1018 NOSIG=

Extra information for LFBE:More info

Metar Taf Metar & Taf Last 4 Metars F.Rules Stats Wind Profile Meteogram Temp Stats Airport Information Weather charts Add Link Nearby VenuesMetar ALERT Operation Metar Decoded Social comments